Time;durP1;ratioP1;P1;durP2;ratioP2;P2;SDS_P1;SDS_P2;PMS_P1;PMS_P2;Temp;Humidity;BMP_temperature;BMP_pressure;BME280_temperature;BME280_humidity;BME280_pressure;Samples;Min_cycle;Max_cycle;Signal;HPM_P1;HPM_P2
2022/09/18 00:00:43;;;;;;;7.30;2.33;;;;;;;10.59;86.64;101170.72;5030114;28;20527;-73
2022/09/18 00:03:09;;;;;;;2.65;1.83;;;;;;;10.60;87.21;101153.09;5026228;28;20029;-73
2022/09/18 00:05:36;;;;;;;24.15;3.58;;;;;;;10.77;88.46;101172.63;5039378;28;20072;-73
2022/09/18 00:08:02;;;;;;;3.33;3.10;;;;;;;10.75;88.70;101158.75;5026953;28;20141;-73
2022/09/18 00:10:27;;;;;;;9.35;3.65;;;;;;;10.81;89.32;101174.84;5031175;28;20606;-73
2022/09/18 00:12:53;;;;;;;3.05;2.33;;;;;;;10.84;88.13;101171.06;5024858;28;20083;-73
2022/09/18 00:15:18;;;;;;;4.47;3.03;;;;;;;10.80;86.55;101169.69;5034125;28;20032;-73
2022/09/18 00:17:43;;;;;;;3.42;2.17;;;;;;;10.80;86.12;101174.97;5024157;28;20021;-72
2022/09/18 00:20:09;;;;;;;2.05;1.95;;;;;;;10.73;85.08;101165.97;5023636;28;20029;-73
2022/09/18 00:22:34;;;;;;;2.28;1.90;;;;;;;10.62;85.97;101159.06;5029613;28;20642;-72
2022/09/18 00:25:00;;;;;;;1.75;1.65;;;;;;;10.61;86.55;101163.50;5024255;28;20029;-72
2022/09/18 00:27:25;;;;;;;2.28;2.08;;;;;;;10.58;86.46;101166.44;5024997;28;20112;-73
2022/09/18 00:29:50;;;;;;;1.92;1.83;;;;;;;10.54;86.65;101167.69;5026861;28;20029;-73
2022/09/18 00:32:16;;;;;;;2.33;2.13;;;;;;;10.42;86.48;101155.63;5022591;28;20040;-73
2022/09/18 00:34:41;;;;;;;4.72;2.08;;;;;;;10.41;86.54;101157.44;5023039;28;20056;-73
2022/09/18 00:37:07;;;;;;;3.40;2.35;;;;;;;10.48;86.57;101171.72;5017836;28;20033;-73
2022/09/18 00:39:32;;;;;;;1.92;1.83;;;;;;;10.45;86.99;101157.97;5026118;28;20041;-73
2022/09/18 00:41:57;;;;;;;4.63;2.00;;;;;;;10.32;86.49;101145.06;5024937;28;20555;-73
2022/09/18 00:44:34;;;;;;;4.68;2.22;;;;;;;10.41;87.01;101159.22;5030215;28;20037;-72
2022/09/18 00:47:12;;;;;;;2.15;2.00;;;;;;;10.47;87.33;101158.66;5029277;28;20087;-72
2022/09/18 00:49:44;;;;;;;3.92;1.70;;;;;;;10.51;87.43;101160.03;5027537;28;20009;-73
2022/09/18 00:52:12;;;;;;;6.25;3.00;;;;;;;10.57;86.21;101164.75;5032015;28;20086;-72
2022/09/18 00:54:45;;;;;;;6.20;2.30;;;;;;;10.55;87.73;101157.97;5032920;28;20029;-72
2022/09/18 00:57:17;;;;;;;2.55;2.45;;;;;;;10.62;87.20;101178.34;5028173;28;20033;-72
2022/09/18 00:59:46;;;;;;;3.55;2.72;;;;;;;10.60;87.96;101172.38;5025893;28;20025;-72
2022/09/18 01:02:12;;;;;;;2.15;2.05;;;;;;;10.72;88.86;101180.16;5030826;28;20037;-72
2022/09/18 01:04:37;;;;;;;2.97;2.88;;;;;;;10.78;88.54;101204.19;5035441;28;20072;-72
2022/09/18 01:07:29;;;;;;;3.10;2.90;;;;;;;10.76;88.58;101198.22;5023599;28;20098;-72
2022/09/18 01:10:09;;;;;;;7.88;2.40;;;;;;;10.77;89.40;101196.41;5022780;28;20138;-72
2022/09/18 01:12:55;;;;;;;3.40;3.20;;;;;;;10.70;90.21;101191.69;5023902;28;20040;-72
2022/09/18 01:15:23;;;;;;;3.42;3.22;;;;;;;10.61;91.15;101189.91;5019078;28;20021;-72
2022/09/18 01:17:59;;;;;;;5.50;3.13;;;;;;;10.49;91.91;101185.75;5028457;28;20025;-72
2022/09/18 01:20:33;;;;;;;3.88;3.72;;;;;;;10.43;92.84;101173.09;5020713;28;20064;-72
2022/09/18 01:23:17;;;;;;;5.03;4.68;;;;;;;10.35;92.74;101168.56;5024293;28;20098;-71
2022/09/18 01:26:05;;;;;;;3.85;3.65;;;;;;;10.36;92.59;101161.47;5024308;28;20227;-71
2022/09/18 01:28:39;;;;;;;3.78;3.58;;;;;;;10.34;93.09;101166.03;5027961;28;20045;-71
2022/09/18 01:31:12;;;;;;;4.63;4.43;;;;;;;10.26;93.90;101166.72;5018188;28;20029;-73
2022/09/18 01:33:42;;;;;;;5.13;4.72;;;;;;;10.27;94.31;101168.38;5023537;28;20029;-73
2022/09/18 01:36:12;;;;;;;6.97;5.45;;;;;;;10.21;94.47;101164.50;5032390;28;20480;-71
2022/09/18 01:38:44;;;;;;;5.68;5.38;;;;;;;10.24;95.20;101173.94;5023457;28;20017;-71
2022/09/18 01:41:20;;;;;;;6.18;5.78;;;;;;;10.27;95.45;101165.75;5026036;28;20029;-73
2022/09/18 01:43:51;;;;;;;5.50;5.10;;;;;;;10.27;94.60;101155.19;5026212;28;20021;-73
2022/09/18 01:46:18;;;;;;;;;;;;;;;10.38;95.24;101162.16;5020605;28;20087;-71
2022/09/18 01:48:55;;;;;;;4.13;3.83;;;;;;;10.33;94.29;101149.38;5023154;28;20039;-72
2022/09/18 01:51:25;;;;;;;4.78;4.57;;;;;;;10.37;92.85;101155.22;5020744;28;20026;-72
2022/09/18 01:53:58;;;;;;;5.93;5.53;;;;;;;10.46;91.62;101157.00;5035150;28;20029;-72
2022/09/18 01:56:30;;;;;;;6.30;4.68;;;;;;;10.47;91.25;101148.09;5020710;28;20475;-72
2022/09/18 01:58:59;;;;;;;6.55;4.80;;;;;;;10.45;90.59;101156.19;5026513;28;20033;-72
2022/09/18 02:01:28;;;;;;;3.55;3.40;;;;;;;10.42;89.76;101150.34;5028082;28;20030;-72
2022/09/18 02:03:59;;;;;;;3.67;3.42;;;;;;;10.44;88.96;101153.69;5021474;28;20026;-72
2022/09/18 02:06:56;;;;;;;3.73;3.53;;;;;;;10.46;89.15;101147.28;5032094;28;20146;-72
2022/09/18 02:09:22;;;;;;;2.97;2.78;;;;;;;10.50;88.63;101147.84;5034493;28;20335;-72
2022/09/18 02:11:51;;;;;;;2.78;2.67;;;;;;;10.50;87.38;101142.56;5023843;28;20025;-71
2022/09/18 02:14:26;;;;;;;3.42;3.13;;;;;;;10.50;87.81;101146.03;5026656;28;20033;-71
2022/09/18 02:16:56;;;;;;;6.75;3.05;;;;;;;10.41;88.54;101123.13;5020303;28;20072;-71
2022/09/18 02:19:35;;;;;;;2.63;2.50;;;;;;;10.45;88.48;101126.31;5034509;28;20052;-71
2022/09/18 02:22:06;;;;;;;3.25;2.97;;;;;;;10.49;88.35;101133.81;5036162;28;20123;-71
2022/09/18 02:24:35;;;;;;;3.35;2.80;;;;;;;10.43;89.71;101122.97;5023034;28;20509;-72
2022/09/18 02:27:05;;;;;;;2.95;2.80;;;;;;;10.54;90.59;101128.13;5023147;28;20267;-72
2022/09/18 02:29:32;;;;;;;4.47;4.18;;;;;;;10.55;90.81;101134.22;5029305;28;20030;-72
2022/09/18 02:32:01;;;;;;;4.50;4.30;;;;;;;10.60;91.62;101148.63;5032018;28;20274;-72
2022/09/18 02:34:28;;;;;;;11.68;6.80;;;;;;;10.61;96.21;101150.31;5032516;28;20031;-72
2022/09/18 02:36:56;;;;;;;10.30;9.50;;;;;;;10.54;98.49;101141.31;5027421;28;20079;-72
2022/09/18 02:39:48;;;;;;;8.60;8.20;;;;;;;10.53;100.00;101134.34;5032403;28;20038;-72
2022/09/18 02:42:32;;;;;;;;;;;;;;;10.45;100.00;101131.59;5028872;28;20480;-72
2022/09/18 02:45:18;;;;;;;6.80;6.40;;;;;;;10.45;100.00;101127.16;5030472;28;20004;-72
2022/09/18 02:47:58;;;;;;;8.38;7.97;;;;;;;10.40;99.73;101126.72;5021181;28;20472;-72
2022/09/18 02:50:30;;;;;;;8.07;7.78;;;;;;;10.40;99.10;101123.28;5026368;28;20021;-72
2022/09/18 02:53:15;;;;;;;8.32;7.72;;;;;;;10.38;99.70;101117.31;5027950;28;20319;-72
2022/09/18 02:56:04;;;;;;;9.57;8.88;;;;;;;10.38;100.00;101122.56;5028426;28;20042;-72
2022/09/18 02:58:46;;;;;;;9.65;9.05;;;;;;;10.39;99.48;101116.34;5028465;28;20099;-73
2022/09/18 03:01:13;;;;;;;8.35;8.05;;;;;;;10.32;100.00;101107.31;5024147;28;20087;-72
2022/09/18 03:03:39;;;;;;;10.30;9.48;;;;;;;10.38;99.20;101118.13;5034085;28;20421;-72
2022/09/18 03:06:06;;;;;;;11.00;9.75;;;;;;;10.35;98.31;101120.25;5026661;28;20041;-72
2022/09/18 03:08:32;;;;;;;8.43;8.13;;;;;;;10.38;98.50;101120.75;5029296;28;20048;-72
2022/09/18 03:10:57;;;;;;;9.05;8.65;;;;;;;10.41;97.33;101127.56;5027414;28;20029;-72
2022/09/18 03:13:23;;;;;;;10.32;8.05;;;;;;;10.42;97.17;101119.50;5030620;28;20048;-72
2022/09/18 03:15:48;;;;;;;7.00;6.60;;;;;;;10.32;96.69;101102.03;5029220;28;20033;-72
2022/09/18 03:18:13;;;;;;;7.10;6.80;;;;;;;10.44;96.51;101116.75;5026101;28;20041;-71
2022/09/18 03:20:41;;;;;;;9.35;7.25;;;;;;;10.39;95.65;101098.69;5028694;28;20021;-71
2022/09/18 03:23:07;;;;;;;7.35;6.75;;;;;;;10.54;95.12;101111.41;5026630;28;20030;-71
2022/09/18 03:25:32;;;;;;;6.80;6.18;;;;;;;10.60;94.96;101108.22;5034620;28;20037;-71
2022/09/18 03:27:58;;;;;;;5.70;5.50;;;;;;;10.62;94.61;101109.72;5036859;28;20098;-72
2022/09/18 03:30:23;;;;;;;6.47;6.18;;;;;;;10.63;94.44;101110.59;5037104;28;20021;-72
2022/09/18 03:32:49;;;;;;;7.20;6.85;;;;;;;10.60;94.78;101087.94;5027746;28;20121;-72
2022/09/18 03:35:14;;;;;;;5.75;5.50;;;;;;;10.70;94.88;101106.38;5027276;28;20024;-73
2022/09/18 03:37:40;;;;;;;6.20;5.93;;;;;;;10.72;94.94;101108.88;5031224;28;20281;-72
2022/09/18 03:40:06;;;;;;;4.78;4.57;;;;;;;10.73;95.13;101105.25;5027711;28;20032;-72
2022/09/18 03:42:31;;;;;;;7.25;5.70;;;;;;;10.75;94.60;101101.50;5030557;28;20037;-73
2022/09/18 03:44:57;;;;;;;5.53;5.22;;;;;;;10.74;94.99;101102.47;5027892;28;20024;-72
2022/09/18 03:47:24;;;;;;;5.43;4.88;;;;;;;10.70;94.57;101099.28;5025427;28;20029;-71
2022/09/18 03:49:49;;;;;;;4.38;4.18;;;;;;;10.77;95.64;101110.09;5035697;28;20120;-71
2022/09/18 03:52:15;;;;;;;5.38;5.18;;;;;;;10.78;95.33;101105.66;5034919;28;20059;-71
2022/09/18 03:54:40;;;;;;;6.68;5.65;;;;;;;10.78;96.13;101103.00;5029118;28;20327;-72
2022/09/18 03:57:05;;;;;;;6.32;5.93;;;;;;;10.78;96.61;101088.03;5031322;28;20024;-74
2022/09/18 03:59:31;;;;;;;6.10;5.38;;;;;;;10.75;96.54;101101.50;5026212;28;20037;-73
2022/09/18 04:01:56;;;;;;;10.13;6.15;;;;;;;10.75;97.75;101101.50;5024117;28;20228;-71
2022/09/18 04:04:22;;;;;;;6.93;6.43;;;;;;;10.74;97.71;101093.75;5028351;28;20039;-73
2022/09/18 04:06:47;;;;;;;6.40;6.10;;;;;;;10.66;98.42;101092.63;5034564;28;20438;-72
2022/09/18 04:09:12;;;;;;;7.50;7.03;;;;;;;10.69;99.04;101102.06;5031238;28;20045;-71
2022/09/18 04:11:38;;;;;;;7.72;7.25;;;;;;;10.69;99.42;101102.06;5031120;28;20028;-72
2022/09/18 04:14:03;;;;;;;6.93;6.63;;;;;;;10.60;99.73;101084.47;5035115;28;20581;-72
2022/09/18 04:16:29;;;;;;;5.30;2.42;;;;;;;10.72;99.83;101096.50;5012475;28;20087;-72
2022/09/18 04:18:54;;;;;;;2.58;2.38;;;;;;;10.72;99.95;101095.69;5027885;28;20055;-72
2022/09/18 04:21:20;;;;;;;2.60;2.50;;;;;;;10.70;99.59;101095.81;5024968;28;20037;-72
2022/09/18 04:23:46;;;;;;;4.15;2.70;;;;;;;10.68;98.28;101103.88;5036340;28;20581;-72
2022/09/18 04:26:11;;;;;;;3.20;3.00;;;;;;;10.69;97.83;101095.00;5028450;28;20324;-72
2022/09/18 04:28:37;;;;;;;4.72;2.67;;;;;;;10.71;96.70;101094.84;5030099;28;20029;-72
2022/09/18 04:31:02;;;;;;;4.43;3.15;;;;;;;10.67;97.60;101086.41;5036565;28;20549;-72
2022/09/18 04:33:28;;;;;;;2.80;2.50;;;;;;;10.73;97.96;101095.53;5021388;28;20589;-72
2022/09/18 04:35:53;;;;;;;3.90;2.72;;;;;;;10.65;97.66;101082.25;5030610;28;20335;-73
2022/09/18 04:38:26;;;;;;;2.72;2.53;;;;;;;10.56;97.11;101073.38;5025434;28;20493;-72
2022/09/18 04:40:58;;;;;;;7.63;2.88;;;;;;;10.66;97.45;101090.00;5030056;28;20065;-72
2022/09/18 04:43:25;;;;;;;3.15;2.15;;;;;;;10.66;96.36;101095.28;5034529;28;20036;-71
2022/09/18 04:45:50;;;;;;;3.13;3.03;;;;;;;10.66;97.13;101089.16;5030340;28;20584;-72
2022/09/18 04:48:17;;;;;;;4.40;2.95;;;;;;;10.64;96.28;101091.13;5028815;28;20409;-71
2022/09/18 04:50:44;;;;;;;2.95;2.75;;;;;;;10.63;96.57;101090.28;5026975;28;20021;-73
2022/09/18 04:53:09;;;;;;;4.60;3.17;;;;;;;10.63;95.96;101092.09;5024395;28;20501;-71
2022/09/18 04:55:35;;;;;;;3.17;2.88;;;;;;;10.62;97.61;101093.88;5047926;28;20108;-71
2022/09/18 04:58:00;;;;;;;2.47;2.28;;;;;;;10.65;97.89;101085.69;5033424;28;20220;-71
2022/09/18 05:00:27;;;;;;;2.95;2.75;;;;;;;10.66;97.80;101087.34;5032588;28;20181;-71
2022/09/18 05:02:53;;;;;;;4.97;2.83;;;;;;;10.73;98.34;101084.13;5030137;28;20350;-71
2022/09/18 05:05:18;;;;;;;5.13;3.08;;;;;;;10.68;99.58;101087.22;5028499;28;20641;-71
2022/09/18 05:07:44;;;;;;;2.70;2.60;;;;;;;10.69;100.00;101087.09;5034230;28;20133;-71
2022/09/18 05:10:09;;;;;;;3.13;2.75;;;;;;;10.79;99.96;101094.13;5033702;28;20476;-72
2022/09/18 05:12:37;;;;;;;3.58;2.50;;;;;;;10.81;99.59;101086.91;5033801;28;20504;-72
2022/09/18 05:15:03;;;;;;;3.75;2.40;;;;;;;10.77;100.00;101081.06;5030463;28;20036;-72
2022/09/18 05:17:29;;;;;;;3.80;3.30;;;;;;;10.78;100.00;101081.88;5034186;28;20495;-72
2022/09/18 05:19:55;;;;;;;2.58;2.45;;;;;;;10.79;100.00;101083.56;5030989;28;20370;-72
2022/09/18 05:22:20;;;;;;;2.60;2.50;;;;;;;10.78;100.00;101066.91;5035484;28;20033;-72
2022/09/18 05:24:45;;;;;;;2.92;2.65;;;;;;;10.79;100.00;101084.38;5033663;28;20044;-71
2022/09/18 05:27:11;;;;;;;2.90;2.70;;;;;;;10.77;99.25;101096.06;5034400;28;20045;-72
2022/09/18 05:29:36;;;;;;;2.95;2.75;;;;;;;10.78;100.00;101113.56;5033194;28;20032;-72
2022/09/18 05:32:02;;;;;;;4.65;3.25;;;;;;;10.74;100.00;101117.50;5034214;28;20035;-73
2022/09/18 05:34:27;;;;;;;3.20;2.90;;;;;;;10.68;100.00;101106.53;5029313;28;20064;-75
2022/09/18 05:36:52;;;;;;;4.28;2.35;;;;;;;10.73;100.00;101098.16;5034469;28;20068;-72
2022/09/18 05:39:18;;;;;;;4.80;2.83;;;;;;;10.70;100.00;101098.47;5032917;28;20033;-72
2022/09/18 05:41:43;;;;;;;5.68;2.40;;;;;;;10.65;100.00;101088.34;5027356;28;20474;-73
2022/09/18 05:44:09;;;;;;;2.97;2.40;;;;;;;10.64;100.00;101093.75;5033912;28;20028;-72
2022/09/18 05:46:34;;;;;;;2.35;2.25;;;;;;;10.61;99.89;101097.53;5034192;28;20024;-73
2022/09/18 05:48:59;;;;;;;2.25;2.13;;;;;;;10.60;100.00;101095.84;5033911;28;20224;-73
2022/09/18 05:51:25;;;;;;;5.75;3.17;;;;;;;10.56;99.32;101083.94;5034102;28;20181;-73
2022/09/18 05:53:50;;;;;;;2.83;2.63;;;;;;;10.60;99.67;101101.13;5031026;28;20037;-72
2022/09/18 05:56:16;;;;;;;2.10;2.00;;;;;;;10.60;99.61;101103.75;5040665;28;20029;-71
2022/09/18 05:58:42;;;;;;;2.15;2.05;;;;;;;10.63;100.00;101100.03;5031068;28;20036;-72
2022/09/18 06:01:08;;;;;;;4.43;2.42;;;;;;;10.62;100.00;101099.16;5034648;28;20063;-72
2022/09/18 06:03:33;;;;;;;2.28;2.17;;;;;;;10.66;100.00;101089.16;5017641;28;20394;-72
2022/09/18 06:05:59;;;;;;;2.35;2.25;;;;;;;10.72;100.00;101093.06;5033207;28;20132;-71
2022/09/18 06:08:24;;;;;;;5.85;3.05;;;;;;;10.60;100.00;101069.44;5036685;28;20138;-71
2022/09/18 06:10:50;;;;;;;2.55;2.35;;;;;;;10.67;100.00;101096.13;5033629;28;20025;-70
2022/09/18 06:13:17;;;;;;;5.03;2.38;;;;;;;10.68;100.00;101082.75;5030953;28;20029;-70
2022/09/18 06:15:47;;;;;;;6.25;2.90;;;;;;;10.69;100.00;101076.53;5034912;28;20380;-71
2022/09/18 06:18:13;;;;;;;2.40;2.30;;;;;;;10.67;100.00;101078.47;5027899;28;20037;-71
2022/09/18 06:20:40;;;;;;;2.35;2.13;;;;;;;10.71;100.00;101081.63;5019460;28;20436;-71
2022/09/18 06:23:05;;;;;;;4.05;2.65;;;;;;;10.69;100.00;101073.88;5022476;28;20580;-71
2022/09/18 06:25:31;;;;;;;3.20;2.45;;;;;;;10.69;100.00;101087.09;5046627;28;20550;-70
2022/09/18 06:27:58;;;;;;;12.15;2.90;;;;;;;10.72;100.00;101093.06;5027584;28;20056;-70
2022/09/18 06:30:29;;;;;;;3.05;2.67;;;;;;;10.69;100.00;101100.28;5026860;28;20021;-72
2022/09/18 06:32:59;;;;;;;4.35;3.03;;;;;;;10.78;100.00;101103.00;5024904;28;20638;-70
2022/09/18 06:35:25;;;;;;;5.00;2.45;;;;;;;10.81;100.00;101103.56;5031015;28;20571;-72
2022/09/18 06:37:50;;;;;;;7.60;2.90;;;;;;;10.78;100.00;101124.97;5030940;28;20035;-71
2022/09/18 06:40:16;;;;;;;7.30;2.80;;;;;;;10.66;100.00;101121.66;5026858;28;20051;-71
2022/09/18 06:42:41;;;;;;;6.53;3.50;;;;;;;10.57;100.00;101109.34;5036273;28;20405;-71
2022/09/18 06:45:07;;;;;;;2.53;2.40;;;;;;;10.44;100.00;101083.25;5034053;28;20039;-72
2022/09/18 06:47:32;;;;;;;8.10;2.80;;;;;;;10.44;100.00;101093.00;5019092;28;20542;-71
2022/09/18 06:49:58;;;;;;;4.00;3.20;;;;;;;10.43;100.00;101089.53;5028464;28;20135;-71
2022/09/18 06:52:23;;;;;;;5.75;2.25;;;;;;;10.39;100.00;101092.59;5028232;28;20086;-71
2022/09/18 06:54:48;;;;;;;4.28;3.25;;;;;;;10.41;100.00;101095.91;5028742;28;20083;-71
2022/09/18 06:57:14;;;;;;;2.38;2.20;;;;;;;10.42;100.00;101097.56;5032431;28;20758;-71
2022/09/18 06:59:39;;;;;;;3.28;2.97;;;;;;;10.44;100.00;101093.81;5027018;28;20060;-71
2022/09/18 07:02:10;;;;;;;10.15;2.88;;;;;;;10.54;100.00;101095.59;5026193;28;20047;-71
2022/09/18 07:04:36;;;;;;;21.00;4.10;;;;;;;10.54;100.00;101090.31;5029516;28;20044;-71
2022/09/18 07:07:01;;;;;;;6.35;3.90;;;;;;;10.55;100.00;101092.81;5037199;28;20495;-71
2022/09/18 07:09:27;;;;;;;2.75;2.65;;;;;;;10.59;100.00;101088.91;5028300;28;20068;-71
2022/09/18 07:11:52;;;;;;;2.88;2.78;;;;;;;10.60;100.00;101087.09;5027053;28;20456;-72
2022/09/18 07:14:17;;;;;;;2.88;2.78;;;;;;;10.63;100.00;101089.47;5027613;28;20112;-72
2022/09/18 07:16:43;;;;;;;3.45;3.35;;;;;;;10.57;100.00;101074.22;5028621;28;20393;-72
2022/09/18 07:19:08;;;;;;;4.22;3.92;;;;;;;10.66;100.00;101089.16;5025823;28;20025;-73
2022/09/18 07:21:34;;;;;;;3.65;3.45;;;;;;;10.64;100.00;101085.84;5028134;28;20320;-71
2022/09/18 07:23:59;;;;;;;3.53;3.33;;;;;;;10.60;100.00;101080.00;5025315;28;20032;-72
2022/09/18 07:26:24;;;;;;;3.25;3.15;;;;;;;10.58;100.00;101087.28;5027206;28;20068;-71
2022/09/18 07:28:51;;;;;;;3.88;3.58;;;;;;;10.55;100.00;101090.19;5029136;28;20586;-71
2022/09/18 07:31:17;;;;;;;3.53;3.20;;;;;;;10.52;100.00;101093.13;5030004;28;20029;-73
2022/09/18 07:33:42;;;;;;;4.50;4.30;;;;;;;10.46;100.00;101080.50;5029077;28;20071;-72
2022/09/18 07:36:07;;;;;;;4.80;4.45;;;;;;;10.48;100.00;101091.72;5015181;28;20045;-72
2022/09/18 07:38:33;;;;;;;3.53;3.38;;;;;;;10.50;100.00;101095.06;5030011;28;20039;-70
2022/09/18 07:41:03;;;;;;;3.53;3.38;;;;;;;10.43;100.00;101078.13;5035873;28;20373;-70
2022/09/18 07:43:29;;;;;;;3.63;3.53;;;;;;;10.38;100.00;101068.00;5035171;28;20025;-71
2022/09/18 07:45:54;;;;;;;3.58;3.47;;;;;;;10.58;100.00;101086.41;5030545;28;20481;-72
2022/09/18 07:48:20;;;;;;;5.97;4.43;;;;;;;10.65;100.00;101085.69;5038039;28;20048;-72
2022/09/18 07:50:45;;;;;;;4.25;3.88;;;;;;;10.74;100.00;101080.53;5032947;28;20033;-72
2022/09/18 07:53:11;;;;;;;4.05;3.85;;;;;;;10.80;100.00;101080.78;5034891;28;20064;-72
2022/09/18 07:55:37;;;;;;;3.92;3.83;;;;;;;10.89;100.00;101079.91;5035065;28;20067;-72
2022/09/18 07:58:05;;;;;;;3.08;2.97;;;;;;;10.88;100.00;101066.84;5032165;28;20341;-72
2022/09/18 08:00:33;;;;;;;5.25;4.85;;;;;;;11.00;100.00;101091.25;5035094;28;20028;-72
2022/09/18 08:03:01;;;;;;;3.78;3.60;;;;;;;11.00;100.00;101089.44;5038163;28;20561;-72
2022/09/18 08:05:26;;;;;;;3.95;3.75;;;;;;;10.99;100.00;101079.84;5051234;28;20118;-68
2022/09/18 08:07:51;;;;;;;4.72;4.25;;;;;;;11.03;100.00;101086.50;5031089;28;20038;-68
2022/09/18 08:10:17;;;;;;;4.93;4.40;;;;;;;10.90;100.00;101067.53;5042943;28;20568;-70
2022/09/18 08:12:42;;;;;;;5.90;4.50;;;;;;;11.14;100.00;101108.41;5031763;28;20041;-71
2022/09/18 08:15:08;;;;;;;4.93;3.95;;;;;;;11.14;100.00;101101.31;5037337;28;20039;-70
2022/09/18 08:17:34;;;;;;;4.78;4.47;;;;;;;11.16;100.00;101109.09;5038233;28;20057;-71
2022/09/18 08:19:59;;;;;;;4.28;4.07;;;;;;;11.17;100.00;101097.53;5037066;28;20166;-73
2022/09/18 08:22:25;;;;;;;5.28;5.07;;;;;;;11.06;100.00;101091.50;5030585;28;20030;-72
2022/09/18 08:24:50;;;;;;;6.95;6.65;;;;;;;10.97;100.00;101080.97;5041621;28;20044;-73
2022/09/18 08:27:15;;;;;;;7.72;7.32;;;;;;;10.94;99.59;101087.38;5034936;28;20052;-72
2022/09/18 08:29:41;;;;;;;8.52;8.13;;;;;;;10.91;99.96;101074.50;5041884;28;20452;-73
2022/09/18 08:32:06;;;;;;;8.75;8.27;;;;;;;10.86;99.88;101061.69;5041694;28;20541;-72
2022/09/18 08:34:32;;;;;;;8.50;8.05;;;;;;;10.93;99.60;101064.59;5040853;28;20118;-72
2022/09/18 08:36:57;;;;;;;9.05;8.60;;;;;;;11.00;99.06;101065.69;5040561;28;20025;-72
2022/09/18 08:39:22;;;;;;;8.55;8.25;;;;;;;11.08;100.00;101067.56;5039702;28;20128;-72
2022/09/18 08:42:20;;;;;;;7.97;7.68;;;;;;;11.18;99.52;101067.53;5042000;28;20064;-73
2022/09/18 08:44:52;;;;;;;7.78;7.47;;;;;;;11.25;99.09;101069.41;4999064;28;20126;-72
2022/09/18 08:47:29;;;;;;;10.55;10.10;;;;;;;11.33;99.90;101076.59;5001969;28;20457;-72
2022/09/18 08:50:04;;;;;;;9.52;9.18;;;;;;;11.29;98.90;101064.66;4999122;28;20034;-72
2022/09/18 08:52:39;;;;;;;8.63;8.13;;;;;;;11.34;100.00;101070.31;4999921;28;20038;-74
2022/09/18 08:55:32;;;;;;;8.82;8.13;;;;;;;11.55;100.00;101077.16;5002360;28;20418;-74
2022/09/18 08:58:06;;;;;;;9.60;9.05;;;;;;;11.65;100.00;101080.53;5000964;28;20029;-72
2022/09/18 09:00:40;;;;;;;9.05;8.52;;;;;;;11.72;99.96;101076.31;5002568;28;20057;-73
2022/09/18 09:03:24;;;;;;;8.38;7.82;;;;;;;11.90;100.00;101085.09;5002162;28;20032;-73
2022/09/18 09:05:55;;;;;;;7.30;6.88;;;;;;;12.01;100.00;101091.94;4996302;28;20029;-72
2022/09/18 09:08:57;;;;;;;6.95;6.68;;;;;;;12.16;99.80;101088.78;5000665;28;20042;-72
2022/09/18 09:12:02;;;;;;;8.23;7.85;;;;;;;12.32;100.00;101092.38;5000395;28;20171;-72
2022/09/18 09:14:54;;;;;;;10.40;8.75;;;;;;;12.47;99.53;101097.06;4999936;28;20096;-72
2022/09/18 09:17:39;;;;;;;13.82;10.65;;;;;;;12.56;98.59;101106.72;5001840;28;20572;-72
2022/09/18 09:20:19;;;;;;;11.55;11.13;;;;;;;12.52;97.50;101092.97;4995111;28;20040;-73
2022/09/18 09:22:57;;;;;;;17.20;16.60;;;;;;;12.46;91.64;101098.06;5040566;28;20393;-73
2022/09/18 09:25:45;;;;;;;19.75;18.85;;;;;;;12.43;89.08;101087.78;5040240;28;20080;-74
2022/09/18 09:28:14;;;;;;;19.65;18.63;;;;;;;12.53;87.55;101104.38;5042109;28;20181;-73
2022/09/18 09:30:43;;;;;;;16.30;15.73;;;;;;;12.54;86.94;101090.16;5045002;28;20064;-74
2022/09/18 09:33:26;;;;;;;15.68;15.02;;;;;;;12.65;85.86;101108.44;5042758;28;20024;-78
2022/09/18 09:36:01;;;;;;;17.90;17.20;;;;;;;12.67;85.48;101108.25;5041326;28;20032;-73
2022/09/18 09:38:37;;;;;;;16.23;15.48;;;;;;;12.66;86.58;101104.78;5039274;28;20109;-73
2022/09/18 09:41:16;;;;;;;19.38;18.60;;;;;;;12.71;87.81;101104.31;5045534;28;20477;-73
2022/09/18 09:43:59;;;;;;;17.85;17.25;;;;;;;12.63;88.13;101091.88;5041138;28;20021;-71
2022/09/18 09:46:43;;;;;;;18.10;16.90;;;;;;;12.95;88.62;101100.94;5039288;28;20104;-69
2022/09/18 09:49:32;;;;;;;19.52;17.65;;;;;;;13.22;88.85;101096.41;5033874;28;20401;-73
2022/09/18 09:52:21;;;;;;;16.48;15.25;;;;;;;13.43;85.73;101096.81;5038566;28;20033;-72
2022/09/18 09:54:51;;;;;;;18.70;17.48;;;;;;;13.65;85.65;101113.09;5035958;28;20026;-72
2022/09/18 09:57:38;;;;;;;19.13;18.02;;;;;;;13.89;84.14;101104.34;5035190;28;20421;-69
2022/09/18 10:00:16;;;;;;;17.77;16.98;;;;;;;13.94;81.02;101102.03;5033658;28;20068;-69
2022/09/18 10:02:54;;;;;;;16.25;15.45;;;;;;;14.01;78.79;101094.25;5049950;28;20039;-70
2022/09/18 10:05:48;;;;;;;16.90;15.55;;;;;;;14.11;78.09;101100.19;5033118;28;20037;-71
2022/09/18 10:08:26;;;;;;;17.20;16.58;;;;;;;14.15;77.74;101105.03;5035401;28;20534;-71
2022/09/18 10:10:58;;;;;;;17.00;16.23;;;;;;;14.12;75.33;101093.91;5035904;28;20105;-70
2022/09/18 10:13:32;;;;;;;16.02;15.00;;;;;;;14.16;76.73;101109.31;5041941;28;20044;-70
2022/09/18 10:16:08;;;;;;;17.48;16.77;;;;;;;14.37;76.73;101111.47;5038627;28;20040;-70
2022/09/18 10:18:45;;;;;;;13.02;12.52;;;;;;;14.53;74.44;101115.91;5039247;28;20040;-70
2022/09/18 10:21:25;;;;;;;15.15;14.52;;;;;;;14.89;75.30;101112.00;5023155;28;20040;-69
2022/09/18 10:23:56;;;;;;;12.75;12.23;;;;;;;15.05;73.62;101111.97;5041740;28;20731;-69
2022/09/18 10:26:39;;;;;;;16.00;10.85;;;;;;;15.07;73.25;101115.28;5040617;28;20350;-70
2022/09/18 10:29:05;;;;;;;13.20;12.70;;;;;;;15.21;72.83;101103.91;5032048;28;20073;-70
2022/09/18 10:31:55;;;;;;;14.15;13.63;;;;;;;15.49;74.59;101113.22;5038979;28;20103;-70
2022/09/18 10:34:32;;;;;;;11.45;11.05;;;;;;;15.52;74.00;101108.38;5035509;28;20032;-69
2022/09/18 10:36:58;;;;;;;10.80;10.00;;;;;;;15.60;72.57;101110.97;5035605;28;20051;-71
2022/09/18 10:39:28;;;;;;;11.25;10.75;;;;;;;15.66;73.25;101113.94;5020214;28;20065;-71
2022/09/18 10:42:15;;;;;;;8.27;7.78;;;;;;;15.56;68.60;101112.34;5040877;28;20029;-71
2022/09/18 10:44:48;;;;;;;6.72;6.43;;;;;;;15.51;69.00;101106.72;5036055;28;20409;-71
2022/09/18 10:47:19;;;;;;;6.32;6.03;;;;;;;15.47;68.86;101104.59;5050140;28;20033;-72
2022/09/18 10:49:51;;;;;;;7.30;6.82;;;;;;;15.39;69.20;101103.63;5034968;28;20032;-72
2022/09/18 10:52:42;;;;;;;7.40;6.90;;;;;;;15.46;70.49;101113.56;5035795;28;20048;-72
2022/09/18 10:55:11;;;;;;;;;;;;;;;15.61;70.23;101114.47;5036521;28;20025;-70
2022/09/18 10:57:42;;;;;;;6.28;5.78;;;;;;;15.66;68.35;101113.94;5047000;28;20003;-72
2022/09/18 11:00:11;;;;;;;7.80;7.40;;;;;;;15.67;69.17;101108.44;5050521;28;20090;-70
2022/09/18 11:02:54;;;;;;;8.88;8.20;;;;;;;15.77;68.66;101095.78;5040100;28;20116;-70
2022/09/18 11:05:37;;;;;;;7.85;7.25;;;;;;;15.78;68.17;101101.91;5043791;28;20485;-72
2022/09/18 11:08:25;;;;;;;8.10;7.50;;;;;;;15.85;69.57;101102.84;5037801;28;20079;-71
2022/09/18 11:11:01;;;;;;;7.60;7.30;;;;;;;15.68;68.76;101080.00;5039391;28;20385;-71
2022/09/18 11:13:28;;;;;;;9.23;7.70;;;;;;;15.89;68.34;101100.66;5040820;28;20025;-72
2022/09/18 11:15:58;;;;;;;8.35;7.85;;;;;;;15.93;68.03;101099.31;5036462;28;20120;-72
2022/09/18 11:18:25;;;;;;;7.20;6.90;;;;;;;15.97;68.88;101096.09;5038158;28;20064;-72
2022/09/18 11:20:53;;;;;;;8.60;8.10;;;;;;;16.12;69.21;101096.16;5043727;28;20516;-71
2022/09/18 11:23:30;;;;;;;9.13;8.73;;;;;;;16.52;69.26;101104.75;5039850;28;20021;-72
2022/09/18 11:26:25;;;;;;;9.60;9.10;;;;;;;17.29;67.66;101100.84;5040843;28;20025;-71
2022/09/18 11:29:01;;;;;;;7.97;7.65;;;;;;;17.85;66.44;101097.53;5028379;28;20429;-71
2022/09/18 11:31:38;;;;;;;6.60;6.00;;;;;;;17.99;63.78;101098.50;5037592;28;20060;-72
2022/09/18 11:34:10;;;;;;;7.18;6.88;;;;;;;18.13;64.01;101100.22;5042355;28;20024;-72
2022/09/18 11:36:39;;;;;;;8.95;6.95;;;;;;;18.00;64.06;101098.28;5044210;28;20033;-72